createdAt,value
2017-12-07T00:00:34.371Z,1.10
2017-12-07T00:03:00.652Z,1.10
2017-12-07T00:05:26.899Z,1.10
2017-12-07T00:07:53.156Z,1.00
2017-12-07T00:10:19.415Z,1.00
2017-12-07T00:12:45.674Z,1.00
2017-12-07T00:15:11.905Z,0.90
2017-12-07T00:17:38.181Z,0.90
2017-12-07T00:20:05.159Z,0.90
2017-12-07T00:22:31.392Z,0.90
2017-12-07T00:24:57.664Z,0.90
2017-12-07T00:27:23.921Z,0.80
2017-12-07T00:29:50.182Z,0.80
2017-12-07T00:32:16.780Z,0.80
2017-12-07T00:34:43.788Z,0.80
2017-12-07T00:37:10.062Z,0.80
2017-12-07T00:39:36.381Z,0.80
2017-12-07T00:42:03.404Z,0.80
2017-12-07T00:44:29.630Z,0.80
2017-12-07T00:46:56.996Z,0.90
2017-12-07T00:49:24.015Z,0.90
2017-12-07T00:51:50.310Z,0.90
2017-12-07T00:54:22.610Z,0.90
2017-12-07T00:56:51.815Z,1.00
2017-12-07T00:59:20.023Z,1.00
2017-12-07T01:01:46.253Z,1.00
2017-12-07T01:04:12.508Z,1.00
2017-12-07T01:06:38.785Z,1.00
2017-12-07T01:09:05.785Z,1.10
2017-12-07T01:11:32.052Z,1.10
2017-12-07T01:13:59.108Z,1.30
2017-12-07T01:16:25.318Z,1.30
2017-12-07T01:18:51.575Z,1.30
2017-12-07T01:21:17.841Z,1.30
2017-12-07T01:23:44.103Z,1.30
2017-12-07T01:26:10.353Z,1.30
2017-12-07T01:28:37.357Z,1.30
2017-12-07T01:31:03.638Z,1.30
2017-12-07T01:33:29.894Z,1.30
2017-12-07T01:35:56.150Z,1.30
2017-12-07T01:38:22.504Z,1.40
2017-12-07T01:40:48.787Z,1.40
2017-12-07T01:43:15.082Z,1.30
2017-12-07T01:45:41.333Z,1.30
2017-12-07T01:48:07.568Z,1.30
2017-12-07T01:50:33.831Z,1.30
2017-12-07T01:53:00.813Z,1.30
2017-12-07T01:55:27.037Z,1.30
2017-12-07T01:57:53.299Z,1.30
2017-12-07T02:00:19.525Z,1.30
2017-12-07T02:02:45.804Z,1.30
2017-12-07T02:05:12.230Z,1.30
2017-12-07T02:07:38.458Z,1.40
2017-12-07T02:10:04.740Z,1.40
2017-12-07T02:12:30.983Z,1.30
2017-12-07T02:14:57.220Z,1.40
2017-12-07T02:17:23.485Z,1.30
2017-12-07T02:19:49.778Z,1.30
2017-12-07T02:22:16.824Z,1.30
2017-12-07T02:24:43.857Z,1.30
2017-12-07T02:27:10.145Z,1.30
2017-12-07T02:29:36.445Z,1.40
2017-12-07T02:32:02.761Z,1.50
2017-12-07T02:34:29.780Z,1.50
2017-12-07T02:36:56.090Z,1.40
2017-12-07T02:39:22.388Z,1.50
2017-12-07T02:41:48.671Z,1.40
2017-12-07T02:44:14.934Z,1.40
2017-12-07T02:46:41.224Z,1.40
2017-12-07T02:49:07.517Z,1.40
2017-12-07T02:51:33.803Z,1.30
2017-12-07T02:54:00.841Z,1.30
2017-12-07T02:56:27.842Z,1.30
2017-12-07T02:58:54.125Z,1.30
2017-12-07T03:01:21.149Z,1.40
2017-12-07T03:03:47.409Z,1.40
2017-12-07T03:06:13.709Z,1.40
2017-12-07T03:08:40.020Z,1.50
2017-12-07T03:11:06.255Z,1.50
2017-12-07T03:13:32.542Z,1.50
2017-12-07T03:15:59.941Z,1.50
2017-12-07T03:18:26.229Z,1.50
2017-12-07T03:20:52.755Z,1.50
2017-12-07T03:23:18.902Z,1.50
2017-12-07T03:25:45.177Z,1.50
2017-12-07T03:28:12.221Z,1.40
2017-12-07T03:30:39.255Z,1.40
2017-12-07T03:33:06.316Z,1.40
2017-12-07T03:35:33.331Z,1.50
2017-12-07T03:37:59.609Z,1.40
2017-12-07T03:40:25.954Z,1.50
2017-12-07T03:42:52.265Z,1.50
2017-12-07T03:45:18.543Z,1.50
2017-12-07T03:47:44.868Z,1.50
2017-12-07T03:50:11.133Z,1.40
2017-12-07T03:52:38.146Z,2.80
2017-12-07T03:55:04.500Z,2.80
2017-12-07T03:57:30.752Z,3.40
2017-12-07T03:59:57.060Z,3.80
2017-12-07T04:02:24.094Z,4.50
2017-12-07T04:04:51.104Z,4.80
2017-12-07T04:07:17.406Z,4.80
2017-12-07T04:09:43.663Z,5.00
2017-12-07T04:12:09.943Z,5.20
2017-12-07T04:14:36.268Z,5.20
2017-12-07T04:17:02.570Z,5.20
2017-12-07T04:19:28.885Z,5.30
2017-12-07T04:21:55.180Z,5.20
2017-12-07T04:24:21.454Z,4.80
2017-12-07T04:26:47.768Z,4.30
2017-12-07T04:29:14.020Z,3.80
2017-12-07T04:31:41.136Z,3.10
2017-12-07T04:34:07.422Z,3.10
2017-12-07T04:36:33.723Z,2.80
2017-12-07T04:39:00.817Z,2.40
2017-12-07T04:41:27.139Z,2.40
2017-12-07T04:43:53.828Z,2.30
2017-12-07T04:46:20.115Z,2.10
2017-12-07T04:48:46.438Z,2.00
2017-12-07T04:51:12.720Z,1.80
2017-12-07T04:53:39.785Z,1.50
2017-12-07T04:56:06.076Z,1.50
2017-12-07T04:58:32.271Z,1.40
2017-12-07T05:00:58.850Z,1.60
2017-12-07T05:03:25.895Z,3.10
2017-12-07T05:05:52.159Z,3.10
2017-12-07T05:08:18.413Z,3.90
2017-12-07T05:10:44.694Z,4.50
2017-12-07T05:13:10.982Z,4.80
2017-12-07T05:15:37.293Z,4.60
2017-12-07T05:18:03.645Z,4.10
2017-12-07T05:20:29.891Z,3.60
2017-12-07T05:22:56.978Z,2.60
2017-12-07T05:25:23.228Z,2.60
2017-12-07T05:27:49.561Z,2.30
2017-12-07T05:30:15.846Z,2.00
2017-12-07T05:32:42.132Z,1.70
2017-12-07T05:35:08.442Z,1.60
2017-12-07T05:37:34.720Z,1.90
2017-12-07T05:40:01.821Z,2.80
2017-12-07T05:42:28.120Z,2.80
2017-12-07T05:44:54.386Z,3.30
2017-12-07T05:47:20.682Z,3.70
2017-12-07T05:49:46.971Z,3.80
2017-12-07T05:52:14.010Z,3.00
2017-12-07T05:54:40.286Z,3.00
2017-12-07T05:57:06.558Z,2.60
2017-12-07T05:59:33.605Z,2.10
2017-12-07T06:01:59.879Z,2.10
2017-12-07T06:04:26.191Z,1.80
2017-12-07T06:06:52.471Z,1.60
2017-12-07T06:09:18.752Z,1.50
2017-12-07T06:11:45.065Z,1.40
2017-12-07T06:14:12.090Z,1.30
2017-12-07T06:16:38.758Z,1.30
2017-12-07T06:19:05.042Z,1.20
2017-12-07T06:21:31.402Z,1.10
2017-12-07T06:23:58.432Z,1.00
2017-12-07T06:26:24.703Z,1.00
2017-12-07T06:28:51.013Z,1.00
2017-12-07T06:31:17.316Z,0.90
2017-12-07T06:33:43.590Z,0.90
2017-12-07T06:36:09.880Z,0.90
2017-12-07T06:38:36.964Z,0.90
2017-12-07T06:41:03.257Z,0.90
2017-12-07T06:43:30.306Z,1.00
2017-12-07T06:45:57.332Z,1.00
2017-12-07T06:48:23.643Z,1.00
2017-12-07T06:50:49.940Z,1.00
2017-12-07T06:53:18.400Z,1.00
2017-12-07T06:55:44.696Z,0.90
2017-12-07T06:58:10.976Z,1.00
2017-12-07T07:00:37.264Z,0.90
2017-12-07T07:03:04.324Z,1.00
2017-12-07T07:05:30.590Z,1.00
2017-12-07T07:07:56.842Z,0.90
2017-12-07T07:10:23.134Z,0.90
2017-12-07T07:12:49.459Z,0.90
2017-12-07T07:15:16.070Z,0.80
2017-12-07T07:17:42.338Z,0.80
2017-12-07T07:20:08.606Z,0.80
2017-12-07T07:22:34.889Z,0.80
2017-12-07T07:25:01.915Z,0.70
2017-12-07T07:27:28.185Z,0.70
2017-12-07T07:29:54.509Z,0.60
2017-12-07T07:32:20.881Z,0.70
2017-12-07T07:34:48.073Z,1.00
2017-12-07T07:37:14.354Z,1.00
2017-12-07T07:39:42.582Z,1.00
2017-12-07T07:42:09.688Z,0.90
2017-12-07T07:44:36.728Z,0.90
2017-12-07T07:47:03.745Z,0.70
2017-12-07T07:49:30.060Z,0.70
2017-12-07T07:51:56.350Z,0.60
2017-12-07T07:54:22.621Z,0.50
2017-12-07T07:56:48.929Z,0.40
2017-12-07T07:59:15.241Z,0.50
2017-12-07T08:01:41.589Z,0.60
2017-12-07T08:04:07.900Z,0.90
2017-12-07T08:06:34.183Z,1.20
2017-12-07T08:09:01.243Z,1.30
2017-12-07T08:11:28.263Z,1.20
2017-12-07T08:13:54.580Z,1.20
2017-12-07T08:16:20.884Z,1.10
2017-12-07T08:18:47.151Z,1.10
2017-12-07T08:21:13.461Z,1.00
2017-12-07T08:23:39.750Z,0.90
2017-12-07T08:26:06.058Z,0.90
2017-12-07T08:28:33.102Z,0.80
2017-12-07T08:31:00.136Z,0.80
2017-12-07T08:33:27.186Z,0.80
2017-12-07T08:35:54.214Z,0.80
2017-12-07T08:38:20.480Z,0.80
2017-12-07T08:40:46.789Z,0.90
2017-12-07T08:43:13.799Z,1.00
2017-12-07T08:45:40.073Z,1.00
2017-12-07T08:48:06.376Z,1.00
2017-12-07T08:50:32.684Z,1.00
2017-12-07T08:52:59.020Z,1.00
2017-12-07T08:55:25.312Z,1.00
2017-12-07T08:57:51.626Z,1.00
2017-12-07T09:00:17.928Z,1.00
2017-12-07T09:02:44.966Z,1.20
2017-12-07T09:05:12.033Z,1.20
2017-12-07T09:07:39.069Z,1.20
2017-12-07T09:10:06.107Z,1.20
2017-12-07T09:12:33.155Z,1.20
2017-12-07T09:14:59.485Z,1.10
2017-12-07T09:17:26.548Z,1.00
2017-12-07T09:19:52.835Z,1.00
2017-12-07T09:22:19.134Z,1.00
2017-12-07T09:24:45.438Z,0.90
2017-12-07T09:27:11.746Z,0.90
2017-12-07T09:29:38.762Z,0.80
2017-12-07T09:32:05.329Z,0.80
2017-12-07T09:34:32.378Z,0.80
2017-12-07T09:36:59.425Z,0.80
2017-12-07T09:39:26.540Z,0.80
2017-12-07T09:41:52.825Z,0.80
2017-12-07T09:44:19.181Z,0.80
2017-12-07T09:46:45.462Z,0.80
2017-12-07T09:49:11.787Z,0.90
2017-12-07T09:51:38.837Z,0.90
2017-12-07T09:54:05.127Z,0.90
2017-12-07T09:56:31.488Z,0.90
2017-12-07T09:58:58.511Z,1.00
2017-12-07T10:01:24.981Z,1.00
2017-12-07T10:03:51.311Z,1.00
2017-12-07T10:06:17.614Z,1.10
2017-12-07T10:08:44.977Z,1.10
2017-12-07T10:11:12.013Z,1.10
2017-12-07T10:13:39.040Z,1.10
2017-12-07T10:16:05.345Z,1.10
2017-12-07T10:18:31.643Z,1.20
2017-12-07T10:20:58.009Z,1.20
2017-12-07T10:23:24.300Z,1.20
2017-12-07T10:25:50.596Z,1.30
2017-12-07T10:28:17.626Z,1.40
2017-12-07T10:30:43.900Z,1.40
2017-12-07T10:33:10.214Z,1.40
2017-12-07T10:35:37.314Z,1.50
2017-12-07T10:38:03.527Z,1.50
2017-12-07T10:40:29.939Z,1.60
2017-12-07T10:42:56.978Z,2.20
2017-12-07T10:45:23.263Z,2.20
2017-12-07T10:47:49.568Z,2.60
2017-12-07T10:50:15.867Z,3.20
2017-12-07T10:52:42.175Z,3.60
2017-12-07T10:55:09.188Z,3.70
2017-12-07T10:57:35.771Z,3.70
2017-12-07T11:00:02.176Z,3.60
2017-12-07T11:02:29.201Z,3.30
2017-12-07T11:04:55.513Z,3.30
2017-12-07T11:07:21.791Z,3.20
2017-12-07T11:09:48.096Z,3.10
2017-12-07T11:12:14.380Z,3.00
2017-12-07T11:14:40.661Z,3.00
2017-12-07T11:17:07.700Z,2.90
2017-12-07T11:19:34.742Z,2.90
2017-12-07T11:22:01.091Z,2.90
2017-12-07T11:24:27.438Z,2.90
2017-12-07T11:26:53.795Z,2.90
2017-12-07T11:29:20.154Z,3.00
2017-12-07T11:31:46.522Z,3.00
2017-12-07T11:34:12.876Z,3.00
2017-12-07T11:36:39.256Z,3.10
2017-12-07T11:39:06.389Z,3.20
2017-12-07T11:41:32.710Z,3.10
2017-12-07T11:43:59.105Z,3.20
2017-12-07T11:46:25.391Z,3.20
2017-12-07T11:48:52.465Z,3.30
2017-12-07T11:51:18.792Z,3.30
2017-12-07T11:53:45.141Z,3.40
2017-12-07T11:56:11.553Z,3.40
2017-12-07T11:58:37.892Z,3.50
2017-12-07T12:01:04.270Z,3.50
2017-12-07T12:03:30.635Z,3.60
2017-12-07T12:05:57.000Z,3.70
2017-12-07T12:08:23.374Z,3.70
2017-12-07T12:10:50.488Z,3.90
2017-12-07T12:13:16.848Z,3.90
2017-12-07T12:15:44.000Z,4.10
2017-12-07T12:18:11.112Z,4.10
2017-12-07T12:20:37.469Z,4.10
2017-12-07T12:23:04.625Z,4.30
2017-12-07T12:25:31.740Z,4.40
2017-12-07T12:27:58.027Z,4.40
2017-12-07T12:30:24.417Z,4.50
2017-12-07T12:32:50.750Z,4.60
2017-12-07T12:35:17.873Z,4.80
2017-12-07T12:37:44.251Z,4.80
2017-12-07T12:40:10.661Z,4.90
2017-12-07T12:42:37.744Z,4.90
2017-12-07T12:45:04.108Z,4.90
2017-12-07T12:47:30.472Z,5.00
2017-12-07T12:49:57.594Z,5.10
2017-12-07T12:52:23.923Z,5.10
2017-12-07T12:54:50.250Z,5.20
2017-12-07T12:57:16.612Z,5.30
2017-12-07T12:59:43.689Z,5.30
2017-12-07T13:02:10.060Z,5.30
2017-12-07T13:04:36.403Z,5.30
2017-12-07T13:07:02.711Z,5.30
2017-12-07T13:09:29.041Z,5.40
2017-12-07T13:11:55.375Z,5.40
2017-12-07T13:14:21.676Z,5.40
2017-12-07T13:16:48.704Z,5.30
2017-12-07T13:19:15.020Z,5.30
2017-12-07T13:21:41.417Z,5.40
2017-12-07T13:24:07.742Z,5.40
2017-12-07T13:26:34.053Z,5.40
2017-12-07T13:29:00.399Z,5.40
2017-12-07T13:31:26.742Z,5.40
2017-12-07T13:33:53.832Z,5.40
2017-12-07T13:36:20.159Z,5.40
2017-12-07T13:38:46.559Z,5.40
2017-12-07T13:41:13.625Z,5.40
2017-12-07T13:43:39.994Z,5.40
2017-12-07T13:46:06.344Z,5.40
2017-12-07T13:48:32.683Z,5.40
2017-12-07T13:50:59.749Z,5.40
2017-12-07T13:53:26.086Z,5.30
2017-12-07T13:55:52.439Z,5.30
2017-12-07T13:58:18.759Z,5.30
2017-12-07T14:00:45.121Z,5.30
2017-12-07T14:03:11.488Z,5.40
2017-12-07T14:05:38.554Z,5.30
2017-12-07T14:08:04.887Z,5.30
2017-12-07T14:10:31.232Z,5.20
2017-12-07T14:12:57.539Z,5.20
2017-12-07T14:15:23.902Z,5.20
2017-12-07T14:17:50.275Z,5.10
2017-12-07T14:20:17.313Z,5.10
2017-12-07T14:22:43.641Z,5.00
2017-12-07T14:25:10.729Z,5.00
2017-12-07T14:27:37.106Z,4.90
2017-12-07T14:30:03.475Z,4.90
2017-12-07T14:32:29.835Z,4.90
2017-12-07T14:34:56.175Z,4.80
2017-12-07T14:37:22.507Z,4.80
2017-12-07T14:39:48.870Z,4.80
2017-12-07T14:42:15.964Z,4.70
2017-12-07T14:44:42.639Z,4.70
2017-12-07T14:47:08.986Z,4.60
2017-12-07T14:49:36.031Z,4.50
2017-12-07T14:52:03.113Z,4.40
2017-12-07T14:54:29.500Z,4.40
2017-12-07T14:56:56.928Z,4.20
2017-12-07T14:59:23.269Z,4.20
2017-12-07T15:01:49.597Z,4.10
2017-12-07T15:04:15.950Z,4.10
2017-12-07T15:06:43.018Z,3.90
2017-12-07T15:09:09.366Z,3.90
2017-12-07T15:11:35.685Z,3.90
2017-12-07T15:14:02.735Z,3.70
2017-12-07T15:16:29.092Z,3.70
2017-12-07T15:18:55.424Z,3.60
2017-12-07T15:21:21.759Z,3.50
2017-12-07T15:23:48.158Z,3.40
2017-12-07T15:26:14.462Z,3.30
2017-12-07T15:28:40.771Z,3.30
2017-12-07T15:31:07.825Z,3.20
2017-12-07T15:33:34.179Z,3.20
2017-12-07T15:36:00.754Z,3.20
2017-12-07T15:38:27.163Z,3.10
2017-12-07T15:40:53.465Z,3.10
2017-12-07T15:43:20.136Z,3.00
2017-12-07T15:45:46.441Z,2.90
2017-12-07T15:48:14.501Z,2.90
2017-12-07T15:50:40.948Z,2.80
2017-12-07T15:53:07.258Z,2.80
2017-12-07T15:55:33.574Z,2.70
2017-12-07T15:58:01.008Z,2.70
2017-12-07T16:00:27.391Z,2.60
2017-12-07T16:02:53.747Z,2.60
2017-12-07T16:05:20.104Z,2.50
2017-12-07T16:07:46.421Z,2.40
2017-12-07T16:10:12.732Z,2.40
2017-12-07T16:12:39.081Z,2.30
2017-12-07T16:15:05.417Z,2.30
2017-12-07T16:17:31.725Z,2.30
2017-12-07T16:19:58.078Z,2.30
2017-12-07T16:22:24.569Z,2.30
2017-12-07T16:24:50.907Z,2.30
2017-12-07T16:27:17.224Z,2.40
2017-12-07T16:29:43.564Z,2.40
2017-12-07T16:32:09.942Z,2.50
2017-12-07T16:34:37.036Z,2.50
2017-12-07T16:37:03.358Z,2.50
2017-12-07T16:39:29.703Z,2.50
2017-12-07T16:41:56.083Z,2.50
2017-12-07T16:44:23.474Z,2.40
2017-12-07T16:46:50.267Z,2.40
2017-12-07T16:49:17.038Z,2.40
2017-12-07T16:51:43.480Z,2.40
2017-12-07T16:54:09.857Z,2.40
2017-12-07T16:56:36.228Z,2.30
2017-12-07T16:59:02.526Z,2.30
2017-12-07T17:01:29.775Z,2.30
2017-12-07T17:03:56.548Z,2.30
2017-12-07T17:06:23.901Z,2.20
2017-12-07T17:08:50.269Z,2.20
2017-12-07T17:11:16.630Z,2.20
2017-12-07T17:13:42.988Z,2.20
2017-12-07T17:16:09.379Z,2.20
2017-12-07T17:18:36.474Z,2.20
2017-12-07T17:21:02.807Z,2.20
2017-12-07T17:23:29.377Z,2.20
2017-12-07T17:25:55.752Z,2.20
2017-12-07T17:28:22.117Z,2.20
2017-12-07T17:30:48.449Z,2.20
2017-12-07T17:33:15.619Z,2.20
2017-12-07T17:35:42.003Z,2.20
2017-12-07T17:38:08.477Z,2.20
2017-12-07T17:40:34.921Z,2.10
2017-12-07T17:43:01.969Z,2.10
2017-12-07T17:45:29.048Z,2.10
2017-12-07T17:47:55.376Z,2.10
2017-12-07T17:50:21.755Z,2.10
2017-12-07T17:52:48.115Z,2.10
2017-12-07T17:55:15.191Z,2.10
2017-12-07T17:57:41.575Z,2.10
2017-12-07T18:00:08.714Z,2.10
2017-12-07T18:02:35.082Z,2.10
2017-12-07T18:05:01.430Z,2.10
2017-12-07T18:07:27.782Z,2.10
2017-12-07T18:09:54.196Z,2.10
2017-12-07T18:12:20.579Z,2.10
2017-12-07T18:14:47.698Z,2.00
2017-12-07T18:17:14.045Z,2.00
2017-12-07T18:19:40.424Z,2.00
2017-12-07T18:22:06.851Z,1.90
2017-12-07T18:24:33.280Z,1.90
2017-12-07T18:26:59.943Z,1.80
2017-12-07T18:29:26.337Z,1.80
2017-12-07T18:31:52.731Z,1.70
2017-12-07T18:34:19.145Z,1.60
2017-12-07T18:36:45.588Z,1.60
2017-12-07T18:39:12.442Z,1.50
2017-12-07T18:41:39.598Z,1.60
2017-12-07T18:44:06.700Z,1.60
2017-12-07T18:46:33.475Z,1.50
2017-12-07T18:48:59.917Z,1.50
2017-12-07T18:51:27.051Z,1.50
2017-12-07T18:53:53.488Z,1.50
2017-12-07T18:56:20.659Z,1.50
2017-12-07T18:58:47.401Z,1.40
2017-12-07T19:01:13.782Z,1.40
2017-12-07T19:03:40.177Z,1.40
2017-12-07T19:06:06.597Z,1.40
2017-12-07T19:08:32.963Z,1.40
2017-12-07T19:10:59.386Z,1.30
2017-12-07T19:13:25.811Z,1.30
2017-12-07T19:15:52.201Z,1.30
2017-12-07T19:18:19.369Z,1.30
2017-12-07T19:20:45.768Z,1.30
2017-12-07T19:23:12.949Z,1.30
2017-12-07T19:25:39.416Z,1.20
2017-12-07T19:28:05.828Z,1.20
2017-12-07T19:30:32.246Z,1.20
2017-12-07T19:32:59.922Z,1.20
2017-12-07T19:35:26.317Z,1.20
2017-12-07T19:37:53.480Z,1.10
2017-12-07T19:40:19.983Z,1.10
2017-12-07T19:42:47.130Z,1.10
2017-12-07T19:45:14.289Z,1.00
2017-12-07T19:47:42.152Z,1.00
2017-12-07T19:50:09.320Z,1.00
2017-12-07T19:52:35.711Z,1.00
2017-12-07T19:55:02.470Z,1.00
2017-12-07T19:57:29.652Z,0.90
2017-12-07T19:59:56.074Z,0.90
2017-12-07T20:02:22.788Z,0.90
2017-12-07T20:04:49.941Z,0.90
2017-12-07T20:07:17.134Z,0.90
2017-12-07T20:09:43.860Z,0.90
2017-12-07T20:12:10.280Z,0.90
2017-12-07T20:14:36.689Z,0.90
2017-12-07T20:17:03.881Z,0.80
2017-12-07T20:19:30.342Z,0.80
2017-12-07T20:21:56.754Z,0.80
2017-12-07T20:24:23.207Z,0.80
2017-12-07T20:26:49.593Z,0.80
2017-12-07T20:29:16.025Z,0.80
2017-12-07T20:31:42.662Z,0.80
2017-12-07T20:34:09.089Z,0.80
2017-12-07T20:36:35.522Z,0.80
2017-12-07T20:39:02.100Z,0.80
2017-12-07T20:41:28.517Z,0.80
2017-12-07T20:43:55.291Z,0.70
2017-12-07T20:46:22.825Z,0.70
2017-12-07T20:48:49.268Z,0.70
2017-12-07T20:51:15.681Z,0.70
2017-12-07T20:53:42.120Z,0.60
2017-12-07T20:56:08.483Z,0.60
2017-12-07T20:58:35.620Z,0.50
2017-12-07T21:01:02.778Z,0.40
2017-12-07T21:03:30.183Z,0.50
2017-12-07T21:05:56.532Z,0.50
2017-12-07T21:08:22.890Z,0.50
2017-12-07T21:10:49.991Z,0.50
2017-12-07T21:13:16.379Z,0.50
2017-12-07T21:15:42.792Z,0.50
2017-12-07T21:18:09.146Z,0.50
2017-12-07T21:20:35.497Z,0.50
2017-12-07T21:23:01.893Z,0.50
2017-12-07T21:25:28.256Z,0.50
2017-12-07T21:27:54.645Z,0.50
2017-12-07T21:30:21.754Z,0.50
2017-12-07T21:32:48.204Z,0.50
2017-12-07T21:35:14.645Z,0.50
2017-12-07T21:37:41.726Z,0.60
2017-12-07T21:40:09.027Z,0.60
2017-12-07T21:42:35.370Z,0.70
2017-12-07T21:45:01.719Z,0.70
2017-12-07T21:47:29.141Z,0.70
2017-12-07T21:49:55.469Z,0.70
2017-12-07T21:52:21.793Z,0.70
2017-12-07T21:54:48.103Z,0.70
2017-12-07T21:57:14.409Z,0.60
2017-12-07T21:59:41.067Z,0.60
2017-12-07T22:02:07.387Z,0.60
2017-12-07T22:04:33.696Z,0.60
2017-12-07T22:07:00.026Z,0.60
2017-12-07T22:09:26.369Z,0.60
2017-12-07T22:11:53.482Z,0.70
2017-12-07T22:14:19.807Z,0.70
2017-12-07T22:16:46.873Z,0.90
2017-12-07T22:19:13.166Z,0.90
2017-12-07T22:21:39.495Z,0.90
2017-12-07T22:24:05.743Z,1.00
2017-12-07T22:26:32.836Z,1.00
2017-12-07T22:28:59.167Z,1.00
2017-12-07T22:31:25.460Z,1.10
2017-12-07T22:33:51.826Z,1.10
2017-12-07T22:36:18.137Z,1.20
2017-12-07T22:38:44.525Z,1.20
2017-12-07T22:41:11.589Z,1.20
2017-12-07T22:43:37.932Z,1.20
2017-12-07T22:46:04.629Z,1.20
2017-12-07T22:48:30.950Z,1.20
2017-12-07T22:50:57.264Z,1.20
2017-12-07T22:53:23.602Z,1.20
2017-12-07T22:55:49.917Z,1.20
2017-12-07T22:58:16.563Z,1.20
2017-12-07T23:00:42.884Z,1.20
2017-12-07T23:18:51.621Z,0.90
2017-12-07T23:21:23.628Z,0.80
2017-12-07T23:23:50.013Z,0.80
2017-12-07T23:26:16.412Z,0.80
2017-12-07T23:28:42.797Z,0.80
2017-12-07T23:31:09.955Z,0.80
2017-12-07T23:33:36.335Z,0.70
2017-12-07T23:36:02.741Z,0.70
2017-12-07T23:38:29.092Z,0.70
2017-12-07T23:40:55.438Z,0.60
2017-12-07T23:43:21.808Z,0.60
2017-12-07T23:45:48.236Z,0.50
2017-12-07T23:48:14.626Z,0.50
2017-12-07T23:50:41.736Z,0.40
2017-12-07T23:53:08.120Z,0.40
2017-12-07T23:55:35.241Z,0.30
2017-12-07T23:58:01.580Z,0.30
